sensor_id;sensor_type;location;lat;lon;timestamp;pressure;altitude;pressure_sealevel;temperature;humidity
7026;BME280;3554;42.132;24.786;2023-04-20T00:01:57;99804.56;;;12.17;100.00
7026;BME280;3554;42.132;24.786;2023-04-20T00:04:27;99793.06;;;11.98;100.00
7026;BME280;3554;42.132;24.786;2023-04-20T00:06:55;99803.75;;;11.94;100.00
7026;BME280;3554;42.132;24.786;2023-04-20T00:09:23;99799.28;;;11.74;100.00
7026;BME280;3554;42.132;24.786;2023-04-20T00:11:50;99809.09;;;11.69;100.00
7026;BME280;3554;42.132;24.786;2023-04-20T00:14:17;99803.88;;;11.69;100.00
7026;BME280;3554;42.132;24.786;2023-04-20T00:16:44;99781.06;;;11.71;100.00
7026;BME280;3554;42.132;24.786;2023-04-20T00:19:11;99800.88;;;11.78;100.00
7026;BME280;3554;42.132;24.786;2023-04-20T00:21:38;99803.16;;;11.87;100.00
7026;BME280;3554;42.132;24.786;2023-04-20T00:24:06;99808.84;;;11.75;100.00
7026;BME280;3554;42.132;24.786;2023-04-20T00:26:33;99812.06;;;11.83;100.00
7026;BME280;3554;42.132;24.786;2023-04-20T00:29:00;99811.31;;;11.79;100.00
7026;BME280;3554;42.132;24.786;2023-04-20T00:31:27;99821.97;;;11.75;100.00
7026;BME280;3554;42.132;24.786;2023-04-20T00:33:54;99825.03;;;11.63;100.00
7026;BME280;3554;42.132;24.786;2023-04-20T00:36:20;99822.28;;;11.67;100.00
7026;BME280;3554;42.132;24.786;2023-04-20T00:38:47;99822.31;;;11.66;100.00
7026;BME280;3554;42.132;24.786;2023-04-20T00:41:15;99818.97;;;11.61;100.00
7026;BME280;3554;42.132;24.786;2023-04-20T00:43:49;99831.69;;;11.48;100.00
7026;BME280;3554;42.132;24.786;2023-04-20T00:46:16;99844.63;;;11.30;100.00
7026;BME280;3554;42.132;24.786;2023-04-20T00:48:44;99850.81;;;11.27;100.00
7026;BME280;3554;42.132;24.786;2023-04-20T00:51:11;99851.94;;;11.20;100.00
7026;BME280;3554;42.132;24.786;2023-04-20T00:53:39;99852.56;;;11.27;100.00
7026;BME280;3554;42.132;24.786;2023-04-20T00:56:06;99797.88;;;10.95;100.00
7026;BME280;3554;42.132;24.786;2023-04-20T00:58:35;99856.84;;;11.29;100.00
7026;BME280;3554;42.132;24.786;2023-04-20T01:01:02;99850.66;;;11.32;100.00
7026;BME280;3554;42.132;24.786;2023-04-20T01:03:30;99855.47;;;11.44;100.00
7026;BME280;3554;42.132;24.786;2023-04-20T01:05:57;99862.41;;;11.45;100.00
7026;BME280;3554;42.132;24.786;2023-04-20T01:08:25;99855.59;;;11.39;100.00
7026;BME280;3554;42.132;24.786;2023-04-20T01:10:52;99860.09;;;11.36;100.00
7026;BME280;3554;42.132;24.786;2023-04-20T01:13:19;99852.03;;;11.42;100.00
7026;BME280;3554;42.132;24.786;2023-04-20T01:15:47;99852.97;;;11.41;100.00
7026;BME280;3554;42.132;24.786;2023-04-20T01:18:14;99846.59;;;11.48;100.00
7026;BME280;3554;42.132;24.786;2023-04-20T01:20:42;99839.09;;;11.37;100.00
7026;BME280;3554;42.132;24.786;2023-04-20T01:23:10;99821.53;;;11.39;100.00
7026;BME280;3554;42.132;24.786;2023-04-20T01:25:37;99799.22;;;11.29;100.00
7026;BME280;3554;42.132;24.786;2023-04-20T01:28:04;99782.69;;;11.27;100.00
7026;BME280;3554;42.132;24.786;2023-04-20T01:30:31;99768.69;;;11.28;100.00
7026;BME280;3554;42.132;24.786;2023-04-20T01:32:58;99744.75;;;11.37;100.00
7026;BME280;3554;42.132;24.786;2023-04-20T01:35:26;99723.38;;;11.48;100.00
7026;BME280;3554;42.132;24.786;2023-04-20T01:37:53;99690.84;;;11.53;100.00
7026;BME280;3554;42.132;24.786;2023-04-20T01:40:21;99660.66;;;11.65;100.00
7026;BME280;3554;42.132;24.786;2023-04-20T01:42:48;99601.69;;;11.75;100.00
7026;BME280;3554;42.132;24.786;2023-04-20T01:45:14;99563.22;;;11.75;100.00
7026;BME280;3554;42.132;24.786;2023-04-20T01:47:41;99566.25;;;11.87;100.00
7026;BME280;3554;42.132;24.786;2023-04-20T01:50:09;99527.06;;;11.82;100.00
7026;BME280;3554;42.132;24.786;2023-04-20T01:52:35;99427.38;;;11.83;100.00
7026;BME280;3554;42.132;24.786;2023-04-20T01:55:02;99330.19;;;11.68;100.00
7026;BME280;3554;42.132;24.786;2023-04-20T01:57:31;99167.50;;;11.71;100.00
7026;BME280;3554;42.132;24.786;2023-04-20T01:59:57;98552.84;;;11.61;100.00
7026;BME280;3554;42.132;24.786;2023-04-20T02:02:24;97474.44;;;11.68;100.00
7026;BME280;3554;42.132;24.786;2023-04-20T02:04:51;96400.22;;;11.68;100.00
7026;BME280;3554;42.132;24.786;2023-04-20T02:07:18;95752.88;;;11.63;100.00
7026;BME280;3554;42.132;24.786;2023-04-20T02:09:45;95397.06;;;11.60;100.00
7026;BME280;3554;42.132;24.786;2023-04-20T02:12:12;95471.69;;;11.56;100.00
7026;BME280;3554;42.132;24.786;2023-04-20T02:14:40;95920.97;;;11.58;100.00
7026;BME280;3554;42.132;24.786;2023-04-20T02:17:06;95951.72;;;11.56;100.00
7026;BME280;3554;42.132;24.786;2023-04-20T02:19:33;95995.84;;;11.51;100.00
7026;BME280;3554;42.132;24.786;2023-04-20T02:22:00;96049.88;;;11.52;100.00
7026;BME280;3554;42.132;24.786;2023-04-20T02:24:27;95998.53;;;11.59;100.00
7026;BME280;3554;42.132;24.786;2023-04-20T02:26:54;96102.88;;;11.64;100.00
7026;BME280;3554;42.132;24.786;2023-04-20T02:29:21;96202.28;;;11.65;100.00
7026;BME280;3554;42.132;24.786;2023-04-20T02:31:49;96278.78;;;11.59;100.00
7026;BME280;3554;42.132;24.786;2023-04-20T02:34:16;96283.72;;;11.72;100.00
7026;BME280;3554;42.132;24.786;2023-04-20T02:36:42;96342.19;;;11.72;100.00
7026;BME280;3554;42.132;24.786;2023-04-20T02:39:09;96431.94;;;11.74;100.00
7026;BME280;3554;42.132;24.786;2023-04-20T02:41:36;96482.97;;;11.70;100.00
7026;BME280;3554;42.132;24.786;2023-04-20T02:44:03;96540.84;;;11.77;100.00
7026;BME280;3554;42.132;24.786;2023-04-20T02:46:30;96606.78;;;11.72;100.00
7026;BME280;3554;42.132;24.786;2023-04-20T02:48:58;96639.72;;;11.75;100.00
7026;BME280;3554;42.132;24.786;2023-04-20T02:51:25;96684.56;;;11.72;100.00
7026;BME280;3554;42.132;24.786;2023-04-20T02:53:51;96723.56;;;11.75;100.00
7026;BME280;3554;42.132;24.786;2023-04-20T02:56:18;96754.78;;;11.78;100.00
7026;BME280;3554;42.132;24.786;2023-04-20T02:58:46;96825.09;;;11.73;100.00
7026;BME280;3554;42.132;24.786;2023-04-20T03:01:13;96866.53;;;11.68;100.00
7026;BME280;3554;42.132;24.786;2023-04-20T03:03:40;96880.97;;;11.62;100.00
7026;BME280;3554;42.132;24.786;2023-04-20T03:06:08;96908.41;;;11.58;100.00
7026;BME280;3554;42.132;24.786;2023-04-20T03:08:36;96946.16;;;11.56;100.00
7026;BME280;3554;42.132;24.786;2023-04-20T03:11:03;96962.69;;;11.56;100.00
7026;BME280;3554;42.132;24.786;2023-04-20T03:13:29;96976.41;;;11.49;100.00
7026;BME280;3554;42.132;24.786;2023-04-20T03:15:56;96967.16;;;11.45;100.00
7026;BME280;3554;42.132;24.786;2023-04-20T03:18:23;96995.25;;;11.43;100.00
7026;BME280;3554;42.132;24.786;2023-04-20T03:20:50;97012.19;;;11.39;100.00
7026;BME280;3554;42.132;24.786;2023-04-20T03:23:18;97009.31;;;11.42;100.00
7026;BME280;3554;42.132;24.786;2023-04-20T03:25:45;97038.69;;;11.45;100.00
7026;BME280;3554;42.132;24.786;2023-04-20T03:28:12;97042.53;;;11.41;100.00
7026;BME280;3554;42.132;24.786;2023-04-20T03:30:38;97044.56;;;11.38;100.00
7026;BME280;3554;42.132;24.786;2023-04-20T03:33:05;97067.31;;;11.37;100.00
7026;BME280;3554;42.132;24.786;2023-04-20T03:35:32;97062.75;;;11.39;100.00
7026;BME280;3554;42.132;24.786;2023-04-20T03:37:59;97087.16;;;11.40;100.00
7026;BME280;3554;42.132;24.786;2023-04-20T03:40:27;97076.44;;;11.43;100.00
7026;BME280;3554;42.132;24.786;2023-04-20T03:42:54;97090.50;;;11.42;100.00
7026;BME280;3554;42.132;24.786;2023-04-20T03:45:20;97100.59;;;11.46;100.00
7026;BME280;3554;42.132;24.786;2023-04-20T03:47:47;97112.16;;;11.55;100.00
7026;BME280;3554;42.132;24.786;2023-04-20T03:50:14;97126.78;;;11.46;100.00
7026;BME280;3554;42.132;24.786;2023-04-20T03:52:41;97164.03;;;11.61;100.00
7026;BME280;3554;42.132;24.786;2023-04-20T03:55:08;97187.94;;;11.78;100.00
7026;BME280;3554;42.132;24.786;2023-04-20T03:57:37;97243.09;;;11.99;100.00
7026;BME280;3554;42.132;24.786;2023-04-20T04:00:04;97298.94;;;12.11;100.00
7026;BME280;3554;42.132;24.786;2023-04-20T04:02:31;97385.34;;;12.23;100.00
7026;BME280;3554;42.132;24.786;2023-04-20T04:04:58;97383.22;;;11.95;100.00
7026;BME280;3554;42.132;24.786;2023-04-20T04:07:25;97469.97;;;12.25;100.00
7026;BME280;3554;42.132;24.786;2023-04-20T04:09:52;97486.06;;;12.10;100.00
7026;BME280;3554;42.132;24.786;2023-04-20T04:12:18;97494.78;;;12.10;100.00
7026;BME280;3554;42.132;24.786;2023-04-20T04:14:46;97486.91;;;12.10;100.00
7026;BME280;3554;42.132;24.786;2023-04-20T04:17:13;97499.31;;;12.30;100.00
7026;BME280;3554;42.132;24.786;2023-04-20T04:19:40;97545.50;;;12.44;100.00
7026;BME280;3554;42.132;24.786;2023-04-20T04:22:08;97576.97;;;12.55;100.00
7026;BME280;3554;42.132;24.786;2023-04-20T04:24:34;97618.03;;;12.67;100.00
7026;BME280;3554;42.132;24.786;2023-04-20T04:27:02;97659.44;;;12.63;100.00
7026;BME280;3554;42.132;24.786;2023-04-20T04:29:30;97662.06;;;12.85;100.00
7026;BME280;3554;42.132;24.786;2023-04-20T04:32:01;97696.16;;;13.20;100.00
7026;BME280;3554;42.132;24.786;2023-04-20T04:34:28;97737.31;;;13.64;100.00
7026;BME280;3554;42.132;24.786;2023-04-20T04:36:55;97835.31;;;13.44;100.00
7026;BME280;3554;42.132;24.786;2023-04-20T04:39:22;97871.63;;;13.50;100.00
7026;BME280;3554;42.132;24.786;2023-04-20T04:41:49;97930.56;;;13.69;100.00
7026;BME280;3554;42.132;24.786;2023-04-20T04:44:15;97979.88;;;13.89;100.00
7026;BME280;3554;42.132;24.786;2023-04-20T04:46:42;97983.03;;;14.17;100.00
7026;BME280;3554;42.132;24.786;2023-04-20T04:49:11;98053.84;;;14.20;100.00
7026;BME280;3554;42.132;24.786;2023-04-20T04:51:38;98099.25;;;14.11;100.00
7026;BME280;3554;42.132;24.786;2023-04-20T04:54:05;98115.81;;;13.89;100.00
7026;BME280;3554;42.132;24.786;2023-04-20T04:56:31;98102.56;;;13.43;100.00
7026;BME280;3554;42.132;24.786;2023-04-20T04:58:58;98051.06;;;13.17;100.00
7026;BME280;3554;42.132;24.786;2023-04-20T05:01:25;98010.31;;;12.99;100.00
7026;BME280;3554;42.132;24.786;2023-04-20T05:03:52;97972.34;;;12.79;100.00
7026;BME280;3554;42.132;24.786;2023-04-20T05:06:20;97953.25;;;12.77;100.00
7026;BME280;3554;42.132;24.786;2023-04-20T05:08:47;97934.56;;;12.69;100.00
7026;BME280;3554;42.132;24.786;2023-04-20T05:11:13;97909.88;;;12.72;100.00
7026;BME280;3554;42.132;24.786;2023-04-20T05:13:40;97929.66;;;12.65;100.00
7026;BME280;3554;42.132;24.786;2023-04-20T05:16:07;97865.38;;;12.47;100.00
7026;BME280;3554;42.132;24.786;2023-04-20T05:18:34;97905.50;;;12.83;100.00
7026;BME280;3554;42.132;24.786;2023-04-20T05:21:00;97903.19;;;12.91;100.00
7026;BME280;3554;42.132;24.786;2023-04-20T05:23:29;97933.94;;;13.02;100.00
7026;BME280;3554;42.132;24.786;2023-04-20T05:25:55;97924.78;;;13.08;100.00
7026;BME280;3554;42.132;24.786;2023-04-20T05:28:22;97956.56;;;13.16;100.00
7026;BME280;3554;42.132;24.786;2023-04-20T05:30:49;97960.09;;;13.27;100.00
7026;BME280;3554;42.132;24.786;2023-04-20T05:33:16;97991.63;;;13.27;100.00
7026;BME280;3554;42.132;24.786;2023-04-20T05:35:42;98034.03;;;13.34;100.00
7026;BME280;3554;42.132;24.786;2023-04-20T05:38:09;98046.28;;;13.46;100.00
7026;BME280;3554;42.132;24.786;2023-04-20T05:40:37;98060.22;;;13.59;100.00
7026;BME280;3554;42.132;24.786;2023-04-20T05:43:04;98031.09;;;13.73;100.00
7026;BME280;3554;42.132;24.786;2023-04-20T05:45:31;98092.81;;;13.80;100.00
7026;BME280;3554;42.132;24.786;2023-04-20T05:47:58;98202.28;;;13.93;100.00
7026;BME280;3554;42.132;24.786;2023-04-20T05:50:26;98220.75;;;14.05;100.00
7026;BME280;3554;42.132;24.786;2023-04-20T05:52:53;98292.63;;;14.05;100.00
7026;BME280;3554;42.132;24.786;2023-04-20T05:55:19;98312.16;;;14.14;100.00
7026;BME280;3554;42.132;24.786;2023-04-20T05:57:48;98314.75;;;14.03;100.00
7026;BME280;3554;42.132;24.786;2023-04-20T06:00:16;98336.88;;;14.36;100.00
7026;BME280;3554;42.132;24.786;2023-04-20T06:02:43;98371.72;;;14.87;100.00
7026;BME280;3554;42.132;24.786;2023-04-20T06:05:10;98419.78;;;15.14;100.00
7026;BME280;3554;42.132;24.786;2023-04-20T06:07:37;98440.06;;;15.48;100.00
7026;BME280;3554;42.132;24.786;2023-04-20T06:10:06;98486.44;;;15.85;100.00
7026;BME280;3554;42.132;24.786;2023-04-20T06:12:33;98496.09;;;16.31;100.00
7026;BME280;3554;42.132;24.786;2023-04-20T06:15:01;98533.50;;;16.48;100.00
7026;BME280;3554;42.132;24.786;2023-04-20T06:17:29;98579.28;;;16.14;100.00
7026;BME280;3554;42.132;24.786;2023-04-20T06:19:55;98591.91;;;15.87;100.00
7026;BME280;3554;42.132;24.786;2023-04-20T06:22:23;98592.69;;;15.76;100.00
7026;BME280;3554;42.132;24.786;2023-04-20T06:24:50;98583.06;;;15.64;100.00
7026;BME280;3554;42.132;24.786;2023-04-20T06:27:16;98585.44;;;15.44;100.00
7026;BME280;3554;42.132;24.786;2023-04-20T06:29:43;98561.09;;;15.64;100.00
7026;BME280;3554;42.132;24.786;2023-04-20T06:32:11;98566.59;;;15.61;100.00
7026;BME280;3554;42.132;24.786;2023-04-20T06:34:38;98571.28;;;15.68;100.00
7026;BME280;3554;42.132;24.786;2023-04-20T06:37:05;98576.38;;;15.82;100.00
7026;BME280;3554;42.132;24.786;2023-04-20T06:39:32;98565.00;;;15.82;100.00
7026;BME280;3554;42.132;24.786;2023-04-20T06:41:59;98595.66;;;15.72;100.00
7026;BME280;3554;42.132;24.786;2023-04-20T06:44:27;98588.81;;;15.69;100.00
7026;BME280;3554;42.132;24.786;2023-04-20T06:46:53;98584.41;;;16.04;100.00
7026;BME280;3554;42.132;24.786;2023-04-20T06:49:21;98588.44;;;16.43;100.00
7026;BME280;3554;42.132;24.786;2023-04-20T06:51:48;98585.50;;;16.48;100.00
7026;BME280;3554;42.132;24.786;2023-04-20T06:54:15;98605.78;;;16.47;100.00
7026;BME280;3554;42.132;24.786;2023-04-20T06:56:42;98606.56;;;16.71;100.00
7026;BME280;3554;42.132;24.786;2023-04-20T06:59:08;98653.25;;;16.60;100.00
7026;BME280;3554;42.132;24.786;2023-04-20T07:01:35;98673.06;;;16.65;100.00
7026;BME280;3554;42.132;24.786;2023-04-20T07:04:02;98696.53;;;16.46;100.00
7026;BME280;3554;42.132;24.786;2023-04-20T07:06:30;98699.50;;;16.42;100.00
7026;BME280;3554;42.132;24.786;2023-04-20T07:08:57;98693.44;;;16.52;100.00
7026;BME280;3554;42.132;24.786;2023-04-20T07:11:24;98692.09;;;16.81;100.00
7026;BME280;3554;42.132;24.786;2023-04-20T07:13:51;98713.09;;;16.72;100.00
7026;BME280;3554;42.132;24.786;2023-04-20T07:16:17;98767.72;;;16.60;100.00
7026;BME280;3554;42.132;24.786;2023-04-20T07:18:44;98772.75;;;16.63;100.00
7026;BME280;3554;42.132;24.786;2023-04-20T07:21:11;98780.44;;;16.66;100.00
7026;BME280;3554;42.132;24.786;2023-04-20T07:23:40;98766.50;;;16.64;100.00
7026;BME280;3554;42.132;24.786;2023-04-20T07:26:08;98772.75;;;16.63;100.00
7026;BME280;3554;42.132;24.786;2023-04-20T07:28:34;98751.94;;;16.48;100.00
7026;BME280;3554;42.132;24.786;2023-04-20T07:31:02;98803.22;;;16.80;100.00
7026;BME280;3554;42.132;24.786;2023-04-20T07:33:28;98799.50;;;16.82;100.00
7026;BME280;3554;42.132;24.786;2023-04-20T07:35:56;98814.63;;;16.80;100.00
7026;BME280;3554;42.132;24.786;2023-04-20T07:38:23;98839.13;;;16.71;100.00
7026;BME280;3554;42.132;24.786;2023-04-20T07:40:51;98844.44;;;16.82;100.00
7026;BME280;3554;42.132;24.786;2023-04-20T07:43:18;98843.34;;;17.08;100.00
7026;BME280;3554;42.132;24.786;2023-04-20T07:45:45;98838.25;;;16.94;100.00
7026;BME280;3554;42.132;24.786;2023-04-20T07:48:12;98836.91;;;16.89;100.00
7026;BME280;3554;42.132;24.786;2023-04-20T07:50:39;98837.66;;;17.02;100.00
7026;BME280;3554;42.132;24.786;2023-04-20T07:53:06;98850.81;;;16.80;100.00
7026;BME280;3554;42.132;24.786;2023-04-20T07:55:33;98865.97;;;16.65;100.00
7026;BME280;3554;42.132;24.786;2023-04-20T07:58:01;98852.34;;;16.82;100.00
7026;BME280;3554;42.132;24.786;2023-04-20T08:00:28;98861.88;;;16.85;100.00
7026;BME280;3554;42.132;24.786;2023-04-20T08:02:55;98871.41;;;16.98;100.00
7026;BME280;3554;42.132;24.786;2023-04-20T08:05:22;98828.00;;;16.66;100.00
7026;BME280;3554;42.132;24.786;2023-04-20T08:07:49;98819.16;;;16.67;100.00
7026;BME280;3554;42.132;24.786;2023-04-20T08:10:16;98867.16;;;16.85;100.00
7026;BME280;3554;42.132;24.786;2023-04-20T08:12:43;98868.41;;;16.92;100.00
7026;BME280;3554;42.132;24.786;2023-04-20T08:15:12;98866.19;;;17.09;100.00
7026;BME280;3554;42.132;24.786;2023-04-20T08:17:39;98870.03;;;17.17;100.00
7026;BME280;3554;42.132;24.786;2023-04-20T08:20:07;98839.13;;;17.06;100.00
7026;BME280;3554;42.132;24.786;2023-04-20T08:22:34;98863.00;;;17.39;100.00
7026;BME280;3554;42.132;24.786;2023-04-20T08:25:01;98848.69;;;17.31;100.00
7026;BME280;3554;42.132;24.786;2023-04-20T08:27:28;98866.19;;;17.55;100.00
7026;BME280;3554;42.132;24.786;2023-04-20T08:29:55;98877.75;;;17.54;100.00
7026;BME280;3554;42.132;24.786;2023-04-20T08:32:24;98866.97;;;17.45;100.00
7026;BME280;3554;42.132;24.786;2023-04-20T08:34:51;98872.97;;;17.70;100.00
7026;BME280;3554;42.132;24.786;2023-04-20T08:37:18;98885.00;;;17.85;100.00
7026;BME280;3554;42.132;24.786;2023-04-20T08:39:45;98887.03;;;17.82;100.00
7026;BME280;3554;42.132;24.786;2023-04-20T08:42:12;98884.06;;;17.86;100.00
7026;BME280;3554;42.132;24.786;2023-04-20T08:44:40;98885.88;;;17.97;100.00
7026;BME280;3554;42.132;24.786;2023-04-20T08:47:08;98872.63;;;17.97;100.00
7026;BME280;3554;42.132;24.786;2023-04-20T08:49:37;98894.41;;;18.00;100.00
7026;BME280;3554;42.132;24.786;2023-04-20T08:52:05;98894.53;;;17.88;100.00
7026;BME280;3554;42.132;24.786;2023-04-20T08:54:31;98886.59;;;17.99;100.00
7026;BME280;3554;42.132;24.786;2023-04-20T08:56:58;98888.63;;;17.95;100.00
7026;BME280;3554;42.132;24.786;2023-04-20T08:59:26;98891.63;;;18.02;100.00
7026;BME280;3554;42.132;24.786;2023-04-20T09:01:52;98881.53;;;18.18;100.00
7026;BME280;3554;42.132;24.786;2023-04-20T09:04:21;98891.38;;;18.27;100.00
7026;BME280;3554;42.132;24.786;2023-04-20T09:06:50;98889.25;;;18.43;100.00
7026;BME280;3554;42.132;24.786;2023-04-20T09:09:18;98894.50;;;18.65;100.00
7026;BME280;3554;42.132;24.786;2023-04-20T09:11:46;98898.25;;;18.63;100.00
7026;BME280;3554;42.132;24.786;2023-04-20T09:14:14;98903.97;;;18.79;100.00
7026;BME280;3554;42.132;24.786;2023-04-20T09:16:52;98896.31;;;18.96;100.00
7026;BME280;3554;42.132;24.786;2023-04-20T09:19:21;98897.91;;;18.99;100.00
7026;BME280;3554;42.132;24.786;2023-04-20T09:21:52;98875.81;;;18.98;100.00
7026;BME280;3554;42.132;24.786;2023-04-20T09:24:19;98891.50;;;18.90;100.00
7026;BME280;3554;42.132;24.786;2023-04-20T09:26:46;98862.88;;;18.42;100.00
7026;BME280;3554;42.132;24.786;2023-04-20T09:29:17;98899.22;;;18.51;100.00
7026;BME280;3554;42.132;24.786;2023-04-20T09:31:45;98895.13;;;18.58;100.00
7026;BME280;3554;42.132;24.786;2023-04-20T09:34:12;98895.47;;;18.53;100.00
7026;BME280;3554;42.132;24.786;2023-04-20T09:36:40;98893.78;;;18.63;100.00
7026;BME280;3554;42.132;24.786;2023-04-20T09:39:10;98892.91;;;18.74;100.00
7026;BME280;3554;42.132;24.786;2023-04-20T09:41:38;98894.69;;;18.84;100.00
7026;BME280;3554;42.132;24.786;2023-04-20T09:44:07;98883.19;;;18.95;100.00
7026;BME280;3554;42.132;24.786;2023-04-20T09:46:35;98891.19;;;19.15;100.00
7026;BME280;3554;42.132;24.786;2023-04-20T09:49:04;98901.63;;;19.28;100.00
7026;BME280;3554;42.132;24.786;2023-04-20T09:51:33;98890.28;;;19.26;100.00
7026;BME280;3554;42.132;24.786;2023-04-20T09:54:01;98887.06;;;19.54;100.00
7026;BME280;3554;42.132;24.786;2023-04-20T09:56:30;98875.06;;;19.39;100.00
7026;BME280;3554;42.132;24.786;2023-04-20T09:58:58;98901.16;;;19.34;100.00
7026;BME280;3554;42.132;24.786;2023-04-20T10:01:25;98896.75;;;19.12;100.00
7026;BME280;3554;42.132;24.786;2023-04-20T10:03:52;98896.69;;;19.35;100.00
7026;BME280;3554;42.132;24.786;2023-04-20T10:06:21;98889.63;;;19.45;100.00
7026;BME280;3554;42.132;24.786;2023-04-20T10:08:48;98890.28;;;19.05;100.00
7026;BME280;3554;42.132;24.786;2023-04-20T10:11:26;98877.53;;;19.20;100.00
7026;BME280;3554;42.132;24.786;2023-04-20T10:13:54;98879.34;;;19.31;100.00
7026;BME280;3554;42.132;24.786;2023-04-20T10:16:21;98884.63;;;19.31;100.00
7026;BME280;3554;42.132;24.786;2023-04-20T10:18:58;98878.44;;;19.41;100.00
7026;BME280;3554;42.132;24.786;2023-04-20T10:21:26;98876.66;;;19.51;100.00
7026;BME280;3554;42.132;24.786;2023-04-20T10:23:53;98873.88;;;19.53;100.00
7026;BME280;3554;42.132;24.786;2023-04-20T10:26:21;98857.78;;;19.45;100.00
7026;BME280;3554;42.132;24.786;2023-04-20T10:28:48;98863.19;;;19.64;100.00
7026;BME280;3554;42.132;24.786;2023-04-20T10:31:16;98868.47;;;19.54;100.00
7026;BME280;3554;42.132;24.786;2023-04-20T10:33:51;98857.50;;;19.68;100.00
7026;BME280;3554;42.132;24.786;2023-04-20T10:36:26;98856.13;;;19.74;100.00
7026;BME280;3554;42.132;24.786;2023-04-20T10:38:53;98863.78;;;19.97;100.00
7026;BME280;3554;42.132;24.786;2023-04-20T10:41:20;98772.56;;;19.48;100.00
7026;BME280;3554;42.132;24.786;2023-04-20T10:43:47;98870.25;;;20.04;100.00
7026;BME280;3554;42.132;24.786;2023-04-20T10:46:17;98861.41;;;20.24;100.00
7026;BME280;3554;42.132;24.786;2023-04-20T10:48:53;98867.63;;;20.44;100.00
7026;BME280;3554;42.132;24.786;2023-04-20T10:51:21;98870.72;;;20.49;99.61
7026;BME280;3554;42.132;24.786;2023-04-20T10:53:58;98874.97;;;20.80;98.87
7026;BME280;3554;42.132;24.786;2023-04-20T10:56:25;98870.72;;;20.40;98.21
7026;BME280;3554;42.132;24.786;2023-04-20T10:58:52;98868.50;;;20.64;100.00
7026;BME280;3554;42.132;24.786;2023-04-20T11:01:20;98874.84;;;20.82;98.41
7026;BME280;3554;42.132;24.786;2023-04-20T11:03:49;98846.69;;;20.79;93.00
7026;BME280;3554;42.132;24.786;2023-04-20T11:06:17;98828.34;;;20.57;94.34
7026;BME280;3554;42.132;24.786;2023-04-20T11:08:44;98879.69;;;20.48;93.07
7026;BME280;3554;42.132;24.786;2023-04-20T11:11:18;98872.59;;;19.98;98.88
7026;BME280;3554;42.132;24.786;2023-04-20T11:13:45;98859.19;;;19.99;100.00
7026;BME280;3554;42.132;24.786;2023-04-20T11:16:13;98852.31;;;19.67;100.00
7026;BME280;3554;42.132;24.786;2023-04-20T11:18:52;98835.16;;;18.77;100.00
7026;BME280;3554;42.132;24.786;2023-04-20T11:21:19;98837.53;;;18.38;100.00
7026;BME280;3554;42.132;24.786;2023-04-20T11:23:47;98817.72;;;17.66;100.00
7026;BME280;3554;42.132;24.786;2023-04-20T11:26:14;98821.88;;;16.89;100.00
7026;BME280;3554;42.132;24.786;2023-04-20T11:28:51;98811.84;;;16.71;100.00
7026;BME280;3554;42.132;24.786;2023-04-20T11:31:18;98803.41;;;17.00;100.00
7026;BME280;3554;42.132;24.786;2023-04-20T11:33:45;98761.06;;;16.78;100.00
7026;BME280;3554;42.132;24.786;2023-04-20T11:36:19;98797.53;;;17.08;100.00
7026;BME280;3554;42.132;24.786;2023-04-20T11:38:46;98821.84;;;17.24;100.00
7026;BME280;3554;42.132;24.786;2023-04-20T11:41:13;98821.00;;;17.24;100.00
7026;BME280;3554;42.132;24.786;2023-04-20T11:43:40;98817.06;;;17.40;100.00
7026;BME280;3554;42.132;24.786;2023-04-20T11:46:17;98826.88;;;17.62;100.00
7026;BME280;3554;42.132;24.786;2023-04-20T11:48:44;98806.66;;;17.83;100.00
7026;BME280;3554;42.132;24.786;2023-04-20T11:51:11;98806.28;;;18.09;100.00
7026;BME280;3554;42.132;24.786;2023-04-20T11:53:40;98801.63;;;18.34;100.00
7026;BME280;3554;42.132;24.786;2023-04-20T11:56:07;98794.88;;;18.52;100.00
7026;BME280;3554;42.132;24.786;2023-04-20T11:58:34;98798.34;;;18.63;100.00
7026;BME280;3554;42.132;24.786;2023-04-20T12:01:01;98794.59;;;18.66;100.00
7026;BME280;3554;42.132;24.786;2023-04-20T12:03:29;98787.63;;;18.85;100.00
7026;BME280;3554;42.132;24.786;2023-04-20T12:05:56;98797.28;;;18.86;100.00
7026;BME280;3554;42.132;24.786;2023-04-20T12:08:23;98792.75;;;18.98;100.00
7026;BME280;3554;42.132;24.786;2023-04-20T12:10:51;98749.69;;;18.85;100.00
7026;BME280;3554;42.132;24.786;2023-04-20T12:13:18;98794.97;;;19.34;100.00
7026;BME280;3554;42.132;24.786;2023-04-20T12:15:44;98795.06;;;19.44;100.00
7026;BME280;3554;42.132;24.786;2023-04-20T12:18:11;98795.94;;;19.54;100.00
7026;BME280;3554;42.132;24.786;2023-04-20T12:20:38;98793.13;;;19.55;100.00
7026;BME280;3554;42.132;24.786;2023-04-20T12:23:05;98789.31;;;19.78;100.00
7026;BME280;3554;42.132;24.786;2023-04-20T12:25:32;98796.63;;;19.86;100.00
7026;BME280;3554;42.132;24.786;2023-04-20T12:28:00;98790.66;;;20.03;100.00
7026;BME280;3554;42.132;24.786;2023-04-20T12:30:31;98782.50;;;19.85;94.26
7026;BME280;3554;42.132;24.786;2023-04-20T12:32:58;98801.19;;;20.14;93.76
7026;BME280;3554;42.132;24.786;2023-04-20T12:35:25;98796.81;;;20.43;92.57
7026;BME280;3554;42.132;24.786;2023-04-20T12:37:52;98797.81;;;20.52;92.64
7026;BME280;3554;42.132;24.786;2023-04-20T12:40:19;98792.78;;;20.77;90.44
7026;BME280;3554;42.132;24.786;2023-04-20T12:42:46;98784.66;;;20.88;85.47
7026;BME280;3554;42.132;24.786;2023-04-20T12:45:14;98783.00;;;21.06;81.42
7026;BME280;3554;42.132;24.786;2023-04-20T12:47:41;98792.06;;;20.85;82.86
7026;BME280;3554;42.132;24.786;2023-04-20T12:50:08;98787.75;;;20.65;86.77
7026;BME280;3554;42.132;24.786;2023-04-20T12:52:35;98772.72;;;20.35;85.84
7026;BME280;3554;42.132;24.786;2023-04-20T12:55:03;98772.19;;;20.41;92.09
7026;BME280;3554;42.132;24.786;2023-04-20T12:57:30;98783.13;;;20.76;92.30
7026;BME280;3554;42.132;24.786;2023-04-20T12:59:56;98780.31;;;20.97;90.42
7026;BME280;3554;42.132;24.786;2023-04-20T13:02:25;98769.69;;;20.87;89.49